MSC Orchestra — 3EJF3 — position and weather

sailwx.info

Track history (hours):
 
Tides and Currents Weather Stations Pressure Air Temp Water Temp Dewpoint Dewpoint Depression Visibility Wind Speed Wind Dir Waves Ship Positions

MSC Orchestra

Last reported at 2016-Dec-01 20:29 UTC. Time now 2016-Dec-02 18:05 UTC.
Position S 23°01' W 043°13'.

Length 294 m; draft 7.8 m.

Type: Ship. MMSI: 372497000.

Date/timePositionNaut miles runAvg speedWind from/ knotsBaromVisibWave heightAir tempDewpointWater temp
2016-Dec-01 20:29S 23°01' W 043°13'8 8.3
2016-Dec-01 19:33S 22°54' W 043°11'0 0.1
2016-Dec-01 18:30S 22°54' W 043°11'0 0.0
2016-Dec-01 17:05S 22°54' W 043°11'0 0.0
2016-Dec-01 16:23S 22°54' W 043°11'0 0.0
2016-Dec-01 15:28S 22°54' W 043°11'0 0.0
2016-Dec-01 14:28S 22°54' W 043°11'0 0.0
2016-Dec-01 13:33S 22°54' W 043°11'0 0.0
2016-Dec-01 12:27S 22°54' W 043°11'0 0.0
2016-Dec-01 08:19S 22°54' W 043°11'0 0.0
2016-Dec-01 07:31S 22°54' W 043°11'0 0.0
2016-Dec-01 06:24S 22°54' W 043°11'0 0.0
2016-Dec-01 05:30S 22°54' W 043°11'0 0.0
2016-Dec-01 04:17S 22°54' W 043°11'0 0.0
2016-Dec-01 03:29S 22°54' W 043°11'0 0.0
2016-Dec-01 02:29S 22°54' W 043°11'0 0.0
2016-Dec-01 00:28S 22°54' W 043°11'0 0.0
2016-Nov-30 23:33S 22°54' W 043°11'0 0.0
2016-Nov-30 22:33S 22°54' W 043°11'0 0.0
2016-Nov-30 21:26S 22°54' W 043°11'0 0.3
2016-Nov-30 20:33S 22°53' W 043°11'1110.6
2016-Nov-30 19:33S 23°04' W 043°14'39019.5
2016-Nov-29 23:33S 27°54' W 048°02'  
2016-Nov-25 07:30S 25°44' W 045°29'20321.6
2016-Nov-24 22:07S 23°04' W 043°12'915.9
2016-Nov-24 21:33S 22°55' W 043°09'3 2.8
2016-Nov-24 20:32S 22°54' W 043°11'0 0.0
2016-Nov-24 19:08S 22°54' W 043°11'0 0.0
2016-Nov-24 18:31S 22°54' W 043°11'0 0.0
2016-Nov-24 17:31S 22°54' W 043°11'0 0.0
2016-Nov-24 12:17S 22°54' W 043°11'0 0.0
2016-Nov-24 10:22S 22°54' W 043°11'1 0.7
2016-Nov-24 08:33S 22°53' W 043°10'1413.7
2016-Nov-24 07:33S 23°02' W 042°58'  
Track history (hours):
 
Tides and Currents Weather Stations Pressure Air Temp Water Temp Dewpoint Dewpoint Depression Visibility Wind Speed Wind Dir Waves Ship Positions

MSC Orchestra

Last reported at 2016-Dec-01 20:29 UTC. Time now 2016-Dec-02 18:05 UTC.
Position S 23°01' W 043°13'.

Length 294 m; draft 7.8 m.

Type: Ship. MMSI: 372497000.

Date/timePositionNaut miles runAvg speedWind from/ knotsBaromVisibWave heightAir tempDewpointWater temp
2016-Dec-01 20:29S 23°01' W 043°13'8 8.3
2016-Dec-01 19:33S 22°54' W 043°11'0 0.1
2016-Dec-01 18:30S 22°54' W 043°11'0 0.0
2016-Dec-01 17:05S 22°54' W 043°11'0 0.0
2016-Dec-01 16:23S 22°54' W 043°11'0 0.0
2016-Dec-01 15:28S 22°54' W 043°11'0 0.0
2016-Dec-01 14:28S 22°54' W 043°11'0 0.0
2016-Dec-01 13:33S 22°54' W 043°11'0 0.0
2016-Dec-01 12:27S 22°54' W 043°11'0 0.0
2016-Dec-01 08:19S 22°54' W 043°11'0 0.0
2016-Dec-01 07:31S 22°54' W 043°11'0 0.0
2016-Dec-01 06:24S 22°54' W 043°11'0 0.0
2016-Dec-01 05:30S 22°54' W 043°11'0 0.0
2016-Dec-01 04:17S 22°54' W 043°11'0 0.0
2016-Dec-01 03:29S 22°54' W 043°11'0 0.0
2016-Dec-01 02:29S 22°54' W 043°11'0 0.0
2016-Dec-01 00:28S 22°54' W 043°11'0 0.0
2016-Nov-30 23:33S 22°54' W 043°11'0 0.0
2016-Nov-30 22:33S 22°54' W 043°11'0 0.0
2016-Nov-30 21:26S 22°54' W 043°11'0 0.3
2016-Nov-30 20:33S 22°53' W 043°11'1110.6
2016-Nov-30 19:33S 23°04' W 043°14'39019.5
2016-Nov-29 23:33S 27°54' W 048°02'  
2016-Nov-25 07:30S 25°44' W 045°29'20321.6
2016-Nov-24 22:07S 23°04' W 043°12'915.9
2016-Nov-24 21:33S 22°55' W 043°09'3 2.8
2016-Nov-24 20:32S 22°54' W 043°11'0 0.0
2016-Nov-24 19:08S 22°54' W 043°11'0 0.0
2016-Nov-24 18:31S 22°54' W 043°11'0 0.0
2016-Nov-24 17:31S 22°54' W 043°11'0 0.0
2016-Nov-24 12:17S 22°54' W 043°11'0 0.0
2016-Nov-24 10:22S 22°54' W 043°11'1 0.7
2016-Nov-24 08:33S 22°53' W 043°10'1413.7
2016-Nov-24 07:33S 23°02' W 042°58'  

Dump ship's entire track history